Time;durP1;ratioP1;P1;durP2;ratioP2;P2;SDS_P1;SDS_P2;PMS_P1;PMS_P2;Temp;Humidity;BMP_temperature;BMP_pressure;BME280_temperature;BME280_humidity;BME280_pressure;Samples;Min_cycle;Max_cycle;Signal;HPM_P1;HPM_P2
2021/12/03 00:01:04;;;;;;;4.30;1.57;;;0.40;99.90;;;;;;5013180;28;20182;-70
2021/12/03 00:03:30;;;;;;;2.83;2.63;;;0.50;99.90;;;;;;5033143;28;20194;-71
2021/12/03 00:05:57;;;;;;;1.00;1.00;;;0.50;99.90;;;;;;5032622;28;20212;-71
2021/12/03 00:08:25;;;;;;;0.50;0.50;;;0.60;99.90;;;;;;5032948;28;20181;-71
2021/12/03 00:10:55;;;;;;;3.03;2.83;;;0.60;99.90;;;;;;5015153;28;20562;-71
2021/12/03 00:13:22;;;;;;;4.13;3.87;;;0.60;99.90;;;;;;5033080;28;20202;-71
2021/12/03 00:15:49;;;;;;;3.67;3.37;;;0.60;99.90;;;;;;5032862;28;20274;-70
2021/12/03 00:18:14;;;;;;;4.77;3.63;;;0.60;99.90;;;;;;5033132;28;20563;-71
2021/12/03 00:20:40;;;;;;;2.30;2.10;;;0.60;99.90;;;;;;5033152;28;20185;-71
2021/12/03 00:23:06;;;;;;;2.80;2.63;;;0.60;99.90;;;;;;5032636;28;20233;-71
2021/12/03 00:25:34;;;;;;;7.07;3.13;;;0.60;99.90;;;;;;5033230;28;20174;-71
2021/12/03 00:28:00;;;;;;;1.47;1.47;;;0.60;99.90;;;;;;5032838;28;20174;-71
2021/12/03 00:30:26;;;;;;;4.37;1.97;;;0.50;99.90;;;;;;5032947;28;20185;-71
2021/12/03 00:32:53;;;;;;;2.97;2.87;;;0.60;99.90;;;;;;5032611;28;20279;-71
2021/12/03 00:35:19;;;;;;;3.60;3.40;;;0.50;99.90;;;;;;5034581;28;20185;-71
2021/12/03 00:37:46;;;;;;;1.03;1.03;;;0.50;99.90;;;;;;5015751;28;20213;-70
2021/12/03 00:40:18;;;;;;;4.10;2.67;;;0.50;99.90;;;;;;5032472;28;20173;-71
2021/12/03 00:42:44;;;;;;;2.47;2.30;;;0.60;99.90;;;;;;5032569;28;20203;-71
2021/12/03 00:45:12;;;;;;;1.77;1.67;;;0.60;99.90;;;;;;5032251;28;20174;-71
2021/12/03 00:47:38;;;;;;;1.67;1.13;;;0.60;99.90;;;;;;5022129;28;20214;-71
2021/12/03 00:50:07;;;;;;;4.13;2.13;;;0.70;99.90;;;;;;5018576;28;20178;-71
2021/12/03 00:52:33;;;;;;;2.13;2.03;;;0.70;99.90;;;;;;5025120;28;20269;-71
2021/12/03 00:54:58;;;;;;;2.00;1.80;;;0.70;99.90;;;;;;5029189;28;20675;-70
2021/12/03 00:57:24;;;;;;;3.20;3.03;;;0.70;99.90;;;;;;5020360;28;20194;-70
2021/12/03 00:59:49;;;;;;;3.73;3.47;;;0.70;99.90;;;;;;5002583;28;20174;-70
2021/12/03 01:02:17;;;;;;;2.53;2.43;;;0.70;99.90;;;;;;5032494;28;20178;-70
2021/12/03 01:04:42;;;;;;;5.33;4.80;;;0.70;99.90;;;;;;5029115;28;20564;-70
2021/12/03 01:07:08;;;;;;;5.33;4.90;;;0.70;99.90;;;;;;4994746;28;20182;-70
2021/12/03 01:09:33;;;;;;;1.83;1.80;;;0.80;99.90;;;;;;5012688;28;20661;-72
2021/12/03 01:11:59;;;;;;;0.97;0.97;;;0.70;99.90;;;;;;5013150;28;20201;-71
2021/12/03 01:14:25;;;;;;;1.93;1.83;;;0.70;99.90;;;;;;5011865;28;20256;-71
2021/12/03 01:16:51;;;;;;;2.93;2.73;;;0.70;99.90;;;;;;5011889;28;20218;-70
2021/12/03 01:19:17;;;;;;;0.83;0.83;;;0.70;99.90;;;;;;5012191;28;20643;-70
2021/12/03 01:21:42;;;;;;;1.53;1.53;;;0.70;99.90;;;;;;5012034;28;20667;-71
2021/12/03 01:24:08;;;;;;;1.03;1.03;;;0.60;99.90;;;;;;5011918;28;20199;-71
2021/12/03 01:26:35;;;;;;;3.97;3.57;;;0.60;99.90;;;;;;5011895;28;20576;-70
2021/12/03 01:29:02;;;;;;;1.23;1.13;;;0.60;99.90;;;;;;5012192;28;20193;-71
2021/12/03 01:31:28;;;;;;;2.97;1.53;;;0.60;99.90;;;;;;5012010;28;20191;-70
2021/12/03 01:33:53;;;;;;;2.13;1.97;;;0.60;99.90;;;;;;5011922;28;20589;-71
2021/12/03 01:36:19;;;;;;;1.73;1.70;;;0.50;99.90;;;;;;5011472;28;20613;-71
2021/12/03 01:38:45;;;;;;;3.70;3.40;;;0.60;99.90;;;;;;5011886;28;20272;-70
2021/12/03 01:41:11;;;;;;;0.30;0.30;;;0.60;99.90;;;;;;5012309;28;20178;-71
2021/12/03 01:43:38;;;;;;;0.83;0.83;;;0.60;99.90;;;;;;5011412;28;20225;-70
2021/12/03 01:46:10;;;;;;;3.23;3.03;;;0.70;99.90;;;;;;5023058;28;20185;-70
2021/12/03 01:48:37;;;;;;;0.90;0.90;;;0.70;99.90;;;;;;5013418;28;20182;-70
2021/12/03 01:51:03;;;;;;;0.57;0.57;;;0.70;99.90;;;;;;5011312;28;20218;-70
2021/12/03 01:53:32;;;;;;;2.00;1.90;;;0.70;99.90;;;;;;5022630;28;20301;-71
2021/12/03 01:56:00;;;;;;;15.50;3.73;;;0.70;99.90;;;;;;5030596;28;20185;-70
2021/12/03 01:58:26;;;;;;;4.20;3.70;;;0.80;99.90;;;;;;4994198;28;20225;-71
2021/12/03 02:00:55;;;;;;;2.30;2.20;;;0.80;99.90;;;;;;5028680;28;20264;-70
2021/12/03 02:03:27;;;;;;;0.43;0.43;;;0.80;99.90;;;;;;5031142;28;20284;-70
2021/12/03 02:05:54;;;;;;;0.67;0.67;;;0.80;99.90;;;;;;5030532;28;20228;-71
2021/12/03 02:08:20;;;;;;;0.07;0.07;;;0.80;99.90;;;;;;5013281;28;20727;-71
2021/12/03 02:10:46;;;;;;;2.50;2.40;;;0.80;99.90;;;;;;5031240;28;20190;-70
2021/12/03 02:13:13;;;;;;;2.43;2.30;;;0.80;99.90;;;;;;5031033;28;20198;-71
2021/12/03 02:15:41;;;;;;;3.20;2.90;;;0.90;99.90;;;;;;5031151;28;20190;-70
2021/12/03 02:18:08;;;;;;;1.60;1.50;;;0.90;99.90;;;;;;5030590;28;20204;-71
2021/12/03 02:20:34;;;;;;;0.83;0.73;;;0.90;99.90;;;;;;5030709;28;20212;-71
2021/12/03 02:23:00;;;;;;;1.80;1.70;;;0.90;99.90;;;;;;5030719;28;20202;-70
2021/12/03 02:25:26;;;;;;;3.80;2.87;;;0.90;99.90;;;;;;5013228;28;20186;-71
2021/12/03 02:27:56;;;;;;;0.83;0.83;;;0.90;99.90;;;;;;5030469;28;20212;-70
2021/12/03 02:30:22;;;;;;;5.17;4.07;;;1.00;99.90;;;;;;5030085;28;20266;-71
2021/12/03 02:32:50;;;;;;;1.50;1.50;;;1.00;99.90;;;;;;5030308;28;20672;-71
2021/12/03 02:35:17;;;;;;;4.37;2.43;;;1.10;99.90;;;;;;5030687;28;20256;-71
2021/12/03 02:37:43;;;;;;;2.33;2.00;;;1.10;99.90;;;;;;5030564;28;20202;-71
2021/12/03 02:40:10;;;;;;;2.10;2.00;;;1.20;99.90;;;;;;5012832;28;20183;-71
2021/12/03 02:42:36;;;;;;;1.30;1.20;;;1.20;99.90;;;;;;5030613;28;20701;-71
2021/12/03 02:45:04;;;;;;;0.23;0.23;;;1.20;99.90;;;;;;5030710;28;20295;-71
2021/12/03 02:47:30;;;;;;;1.23;1.13;;;1.20;99.90;;;;;;5021817;28;20233;-71
2021/12/03 02:49:55;;;;;;;3.60;0.87;;;1.30;99.90;;;;;;5009636;28;20202;-71
2021/12/03 02:52:21;;;;;;;3.00;1.40;;;1.30;99.90;;;;;;5003335;28;20182;-70
2021/12/03 02:54:47;;;;;;;0.63;0.63;;;1.30;99.90;;;;;;5027581;28;20213;-71
2021/12/03 02:57:12;;;;;;;1.33;1.33;;;1.30;99.90;;;;;;5021362;28;20203;-71
2021/12/03 02:59:38;;;;;;;1.73;1.43;;;1.40;99.90;;;;;;5017184;28;20277;-71
2021/12/03 03:02:04;;;;;;;4.30;3.77;;;1.40;99.90;;;;;;5030712;28;20177;-71
2021/12/03 03:04:29;;;;;;;0.73;0.57;;;1.40;99.90;;;;;;5030324;28;20290;-71
2021/12/03 03:06:55;;;;;;;2.10;2.00;;;1.40;99.90;;;;;;5030562;28;20588;-71
2021/12/03 03:09:21;;;;;;;2.47;2.37;;;1.30;99.90;;;;;;5030335;28;20191;-71
2021/12/03 03:11:47;;;;;;;0.60;0.60;;;1.40;99.90;;;;;;5034673;28;20186;-71
2021/12/03 03:14:12;;;;;;;1.47;1.37;;;1.40;99.90;;;;;;5032462;28;20602;-71
2021/12/03 03:16:39;;;;;;;1.80;1.70;;;1.40;99.90;;;;;;5033815;28;20197;-71
2021/12/03 03:19:11;;;;;;;2.00;1.90;;;1.50;99.90;;;;;;5016117;28;20182;-70
2021/12/03 03:21:37;;;;;;;2.33;1.63;;;1.50;99.90;;;;;;5033785;28;20181;-71
2021/12/03 03:24:03;;;;;;;2.70;2.60;;;1.50;99.90;;;;;;5016024;28;20630;-71
2021/12/03 03:26:29;;;;;;;2.13;2.03;;;1.60;99.90;;;;;;5033486;28;20586;-71
2021/12/03 03:28:57;;;;;;;0.50;0.30;;;1.60;99.90;;;;;;5033508;28;20186;-71
2021/12/03 03:31:23;;;;;;;0.87;0.87;;;1.60;99.90;;;;;;5033812;28;20520;-71
2021/12/03 03:33:48;;;;;;;1.50;1.50;;;1.60;99.90;;;;;;5032318;28;20236;-71
2021/12/03 03:36:14;;;;;;;4.23;3.60;;;1.60;99.90;;;;;;5033473;28;20550;-71
2021/12/03 03:38:40;;;;;;;0.17;0.17;;;1.60;99.90;;;;;;5033398;28;20206;-71
2021/12/03 03:41:05;;;;;;;1.47;1.47;;;1.60;99.90;;;;;;5032263;28;20274;-70
2021/12/03 03:43:31;;;;;;;0.80;0.80;;;1.60;99.90;;;;;;5033284;28;20285;-69
2021/12/03 03:45:57;;;;;;;1.37;1.27;;;1.60;99.90;;;;;;5033152;28;20699;-70
2021/12/03 03:48:24;;;;;;;2.93;2.70;;;1.60;99.90;;;;;;4999494;28;20600;-70
2021/12/03 03:50:50;;;;;;;3.77;3.30;;;1.60;99.90;;;;;;5013974;28;20191;-70
2021/12/03 03:53:15;;;;;;;2.70;2.47;;;1.60;99.90;;;;;;5009902;28;20210;-70
2021/12/03 03:55:41;;;;;;;4.43;4.07;;;1.50;99.90;;;;;;5032781;28;20178;-70
2021/12/03 03:58:08;;;;;;;1.80;1.77;;;1.50;99.90;;;;;;5016810;28;20222;-70
2021/12/03 04:00:40;;;;;;;2.47;2.27;;;1.50;99.90;;;;;;5027970;28;20264;-70
2021/12/03 04:03:05;;;;;;;2.13;1.30;;;1.40;99.90;;;;;;5032870;28;20690;-70
2021/12/03 04:05:31;;;;;;;2.03;1.93;;;1.40;99.90;;;;;;5032096;28;20236;-71
2021/12/03 04:07:57;;;;;;;2.70;2.50;;;1.40;99.90;;;;;;5032592;28;20243;-70
2021/12/03 04:10:23;;;;;;;3.57;3.37;;;1.40;99.90;;;;;;5033126;28;20197;-70
2021/12/03 04:12:49;;;;;;;5.73;3.83;;;1.40;99.90;;;;;;5014975;28;20295;-70
2021/12/03 04:15:15;;;;;;;3.03;2.83;;;1.50;99.90;;;;;;5033180;28;20185;-70
2021/12/03 04:17:41;;;;;;;1.43;1.33;;;1.50;99.90;;;;;;5030944;28;20228;-71
2021/12/03 04:20:12;;;;;;;3.87;3.60;;;1.60;99.90;;;;;;5032664;28;20179;-70
2021/12/03 04:22:39;;;;;;;1.10;0.97;;;1.70;99.90;;;;;;5032743;28;20202;-71
2021/12/03 04:25:07;;;;;;;2.47;2.27;;;1.70;99.90;;;;;;5031358;28;20664;-71
2021/12/03 04:27:34;;;;;;;0.80;0.80;;;1.80;99.90;;;;;;5032341;28;20181;-70
2021/12/03 04:30:00;;;;;;;0.73;0.73;;;1.80;99.90;;;;;;5032991;28;20191;-71
2021/12/03 04:32:26;;;;;;;5.20;4.27;;;1.90;99.90;;;;;;5032363;28;20245;-72
2021/12/03 04:34:52;;;;;;;1.30;1.30;;;2.00;99.90;;;;;;5032493;28;20180;-70
2021/12/03 04:37:18;;;;;;;0.40;0.40;;;2.00;99.90;;;;;;5031947;28;20237;-71
2021/12/03 04:39:44;;;;;;;1.53;1.50;;;2.00;99.90;;;;;;5032263;28;20183;-71
2021/12/03 04:42:10;;;;;;;2.90;2.30;;;2.10;99.90;;;;;;5032242;28;20177;-71
2021/12/03 04:44:37;;;;;;;0.73;0.73;;;2.10;99.90;;;;;;5014534;28;20791;-71
2021/12/03 04:47:03;;;;;;;0.43;0.43;;;2.10;99.90;;;;;;5025440;28;20185;-71
2021/12/03 04:49:30;;;;;;;0.30;0.30;;;2.20;99.90;;;;;;4994475;28;20198;-71
2021/12/03 04:51:56;;;;;;;1.67;1.57;;;2.20;99.90;;;;;;5013041;28;20644;-71
2021/12/03 04:54:22;;;;;;;0.87;0.87;;;2.20;99.90;;;;;;5020602;28;20211;-71
2021/12/03 04:56:48;;;;;;;12.80;3.70;;;2.20;99.90;;;;;;5025921;28;20250;-71
2021/12/03 04:59:13;;;;;;;0.10;0.10;;;2.20;99.90;;;;;;4998066;28;20185;-71
2021/12/03 05:01:40;;;;;;;2.00;1.90;;;2.30;99.90;;;;;;5031675;28;20176;-71
2021/12/03 05:04:06;;;;;;;1.83;1.63;;;2.30;99.90;;;;;;5031753;28;20279;-70
2021/12/03 05:06:52;;;;;;;2.13;1.50;;;2.30;99.90;;;;;;5031577;28;20278;-71
2021/12/03 05:09:17;;;;;;;2.47;1.67;;;2.30;99.90;;;;;;5031295;28;20183;-71
2021/12/03 05:11:42;;;;;;;4.23;1.67;;;2.40;99.90;;;;;;5031863;28;20181;-71
2021/12/03 05:14:08;;;;;;;1.80;1.47;;;2.30;99.90;;;;;;5031422;28;20281;-70
2021/12/03 05:16:34;;;;;;;5.80;2.20;;;2.30;99.90;;;;;;5031305;28;20242;-71
2021/12/03 05:18:59;;;;;;;2.20;2.10;;;2.20;99.90;;;;;;5031357;28;20206;-70
2021/12/03 05:21:25;;;;;;;3.13;2.63;;;2.20;99.90;;;;;;5031670;28;20196;-70
2021/12/03 05:23:50;;;;;;;0.10;0.10;;;2.10;99.90;;;;;;5031280;28;20287;-70
2021/12/03 05:26:16;;;;;;;1.30;1.30;;;2.00;99.90;;;;;;5031121;28;20249;-71
2021/12/03 05:28:42;;;;;;;0.70;0.70;;;2.00;99.90;;;;;;5031302;28;20182;-71
2021/12/03 05:31:08;;;;;;;8.47;7.60;;;2.00;99.90;;;;;;5031197;28;20560;-71
2021/12/03 05:33:34;;;;;;;4.00;1.50;;;1.90;99.90;;;;;;5032619;28;20713;-71
2021/12/03 05:35:59;;;;;;;2.50;2.40;;;2.00;99.90;;;;;;5030565;28;20214;-71
2021/12/03 05:38:25;;;;;;;0.60;0.60;;;2.00;99.90;;;;;;5031475;28;20198;-72
2021/12/03 05:40:51;;;;;;;2.27;1.00;;;2.10;99.90;;;;;;5031898;28;20230;-71
2021/12/03 05:43:17;;;;;;;2.13;2.00;;;2.20;99.90;;;;;;5031476;28;20195;-71
2021/12/03 05:45:43;;;;;;;1.47;1.47;;;2.20;99.90;;;;;;5030372;28;20216;-72
2021/12/03 05:48:08;;;;;;;1.30;1.30;;;2.30;99.90;;;;;;5017712;28;20221;-71
2021/12/03 05:50:35;;;;;;;18.13;2.67;;;2.30;99.90;;;;;;5011675;28;20607;-71
2021/12/03 05:53:00;;;;;;;1.30;1.20;;;2.40;99.90;;;;;;5014267;28;20695;-71
2021/12/03 05:55:26;;;;;;;5.10;0.77;;;2.50;99.90;;;;;;5031029;28;20271;-71
2021/12/03 05:57:52;;;;;;;4.43;3.07;;;2.50;99.90;;;;;;5043402;23;20196;-74
2021/12/03 06:00:22;;;;;;;0.30;0.30;;;2.50;99.90;;;;;;4991164;28;20206;-74
2021/12/03 06:02:48;;;;;;;0.63;0.63;;;2.50;99.90;;;;;;5011350;28;20208;-73
2021/12/03 06:05:14;;;;;;;1.67;1.57;;;2.50;99.90;;;;;;5011398;28;20180;-73
2021/12/03 06:07:39;;;;;;;0.50;0.50;;;2.50;99.90;;;;;;5010982;28;20266;-73
2021/12/03 06:10:06;;;;;;;0.57;0.57;;;2.60;99.90;;;;;;5030138;28;20703;-73
2021/12/03 06:12:31;;;;;;;5.47;1.30;;;2.60;99.90;;;;;;5030337;28;20198;-74
2021/12/03 06:14:57;;;;;;;1.07;1.07;;;2.60;99.90;;;;;;5030645;28;20181;-74
2021/12/03 06:17:23;;;;;;;2.27;2.17;;;2.60;99.90;;;;;;5030470;28;20207;-74
2021/12/03 06:19:48;;;;;;;1.07;1.07;;;2.60;99.90;;;;;;5030827;28;20199;-74
2021/12/03 06:22:14;;;;;;;1.37;0.77;;;2.60;99.90;;;;;;5031894;28;20226;-74
2021/12/03 06:24:40;;;;;;;0.87;0.87;;;2.60;99.90;;;;;;5033099;28;20233;-75
2021/12/03 06:27:06;;;;;;;1.43;1.33;;;2.60;99.90;;;;;;5014474;28;20191;-74
2021/12/03 06:29:32;;;;;;;0.60;0.60;;;2.60;99.90;;;;;;5030944;28;20203;-73
2021/12/03 06:31:57;;;;;;;1.10;1.10;;;2.60;99.90;;;;;;5012928;28;20746;-74
2021/12/03 06:34:23;;;;;;;0.63;0.63;;;2.60;99.90;;;;;;5030916;28;20235;-74
2021/12/03 06:36:48;;;;;;;16.83;2.70;;;2.60;99.90;;;;;;5030170;28;20187;-74
2021/12/03 06:39:14;;;;;;;2.90;1.30;;;2.60;99.90;;;;;;5030729;28;20222;-74
2021/12/03 06:41:40;;;;;;;1.40;0.83;;;2.60;99.90;;;;;;5012413;28;20188;-74
2021/12/03 06:44:08;;;;;;;2.20;2.10;;;2.60;99.90;;;;;;5030445;28;20185;-74
2021/12/03 06:46:34;;;;;;;0.87;0.87;;;2.60;99.90;;;;;;5016212;28;20172;-74
2021/12/03 06:48:59;;;;;;;2.33;2.03;;;2.60;99.90;;;;;;5014475;28;20624;-74
2021/12/03 06:51:25;;;;;;;1.07;1.07;;;2.70;99.90;;;;;;5015905;28;20311;-74
2021/12/03 06:54:00;;;;;;;2.83;2.63;;;2.70;99.90;;;;;;5014514;28;20173;-74
2021/12/03 06:56:33;;;;;;;1.73;1.70;;;2.70;99.90;;;;;;5020267;28;20264;-73
2021/12/03 06:58:59;;;;;;;2.73;2.53;;;2.70;99.90;;;;;;5012332;28;20266;-73
2021/12/03 07:01:25;;;;;;;0.73;0.73;;;2.70;99.90;;;;;;5010861;28;20185;-73
2021/12/03 07:03:50;;;;;;;1.07;0.83;;;2.70;99.90;;;;;;5023423;28;20189;-74
2021/12/03 07:06:16;;;;;;;1.40;1.40;;;2.70;99.90;;;;;;5033788;28;20645;-74
2021/12/03 07:08:41;;;;;;;2.57;1.83;;;2.70;99.90;;;;;;5033780;28;20847;-75
2021/12/03 07:11:07;;;;;;;0.77;0.77;;;2.70;99.90;;;;;;5033891;28;20191;-75
2021/12/03 07:13:33;;;;;;;1.90;1.13;;;2.70;99.90;;;;;;5033872;28;20185;-74
2021/12/03 07:15:59;;;;;;;1.17;1.17;;;2.70;99.90;;;;;;5033656;28;20185;-75
2021/12/03 07:18:24;;;;;;;2.00;1.90;;;2.80;99.90;;;;;;5033710;28;20212;-75
2021/12/03 07:20:51;;;;;;;0.50;0.50;;;2.80;99.90;;;;;;5033771;28;20537;-75
2021/12/03 07:23:16;;;;;;;0.30;0.30;;;2.80;99.90;;;;;;5016056;28;20238;-75
2021/12/03 07:25:42;;;;;;;0.13;0.13;;;2.80;99.90;;;;;;5033504;28;20188;-75
2021/12/03 07:28:08;;;;;;;0.77;0.77;;;2.80;99.90;;;;;;5015873;28;20208;-75
2021/12/03 07:30:33;;;;;;;0.63;0.63;;;2.80;99.90;;;;;;5015487;28;20279;-74
2021/12/03 07:32:59;;;;;;;0.83;0.83;;;2.80;99.90;;;;;;5033683;28;20301;-75
2021/12/03 07:35:25;;;;;;;0.77;0.77;;;2.80;99.90;;;;;;5033892;28;20206;-75
2021/12/03 07:37:51;;;;;;;0.93;0.83;;;2.80;99.90;;;;;;5033123;28;20200;-75
2021/12/03 07:40:17;;;;;;;2.47;1.63;;;2.80;99.90;;;;;;5033097;28;20687;-75
2021/12/03 07:42:42;;;;;;;0.10;0.10;;;2.70;99.90;;;;;;5033337;28;20587;-75
2021/12/03 07:45:10;;;;;;;1.40;1.40;;;2.70;99.90;;;;;;5011360;28;20192;-75
2021/12/03 07:47:36;;;;;;;0.53;0.53;;;2.70;99.90;;;;;;4995890;28;20177;-75
2021/12/03 07:50:07;;;;;;;0.20;0.20;;;2.70;99.90;;;;;;5013382;28;20226;-76
2021/12/03 07:52:34;;;;;;;0.67;0.67;;;2.70;99.90;;;;;;4996613;28;20191;-74
2021/12/03 07:55:00;;;;;;;1.23;1.23;;;2.70;99.90;;;;;;4998451;28;20191;-75
2021/12/03 07:57:25;;;;;;;1.80;1.67;;;2.70;99.90;;;;;;5012576;28;20203;-73
2021/12/03 07:59:51;;;;;;;0.50;0.50;;;2.70;99.90;;;;;;5011236;28;20222;-74
2021/12/03 08:02:17;;;;;;;2.30;2.03;;;2.70;99.90;;;;;;5032590;28;20263;-74
2021/12/03 08:04:42;;;;;;;0.70;0.70;;;2.70;99.90;;;;;;5026585;28;20205;-73
2021/12/03 08:07:09;;;;;;;0.10;0.10;;;2.70;99.90;;;;;;5012917;28;20179;-73
2021/12/03 08:09:34;;;;;;;0.77;0.73;;;2.80;99.90;;;;;;5013426;28;20586;-74
2021/12/03 08:12:01;;;;;;;0.10;0.10;;;2.80;99.90;;;;;;5013311;28;20273;-74
2021/12/03 08:14:27;;;;;;;0.10;0.10;;;2.80;99.90;;;;;;5013622;28;20189;-73
2021/12/03 08:16:52;;;;;;;1.83;0.80;;;2.80;99.90;;;;;;5013162;28;20832;-74
2021/12/03 08:19:18;;;;;;;1.83;1.07;;;2.90;99.90;;;;;;5011832;28;20288;-74
2021/12/03 08:21:44;;;;;;;0.10;0.10;;;2.90;99.90;;;;;;5033639;28;20717;-72
2021/12/03 08:24:09;;;;;;;0.50;0.50;;;2.90;99.90;;;;;;5032254;28;20188;-72
2021/12/03 08:26:35;;;;;;;0.83;0.83;;;2.90;99.90;;;;;;5014113;28;20183;-72
2021/12/03 08:29:01;;;;;;;0.23;0.23;;;3.00;99.90;;;;;;5032484;28;20632;-73
2021/12/03 08:31:27;;;;;;;0.20;0.20;;;3.00;99.90;;;;;;5032089;28;20262;-73
2021/12/03 08:33:52;;;;;;;0.87;0.87;;;3.00;99.90;;;;;;5014634;28;20534;-73
2021/12/03 08:36:19;;;;;;;0.00;0.00;;;3.00;99.90;;;;;;5032394;28;20661;-72
2021/12/03 08:38:45;;;;;;;0.20;0.20;;;3.10;99.90;;;;;;5032337;28;20223;-73
2021/12/03 08:41:15;;;;;;;0.10;0.10;;;3.10;99.90;;;;;;5032373;28;20541;-72
2021/12/03 08:43:40;;;;;;;0.07;0.07;;;3.10;99.90;;;;;;5031614;28;20174;-72
2021/12/03 08:46:13;;;;;;;2.23;1.23;;;3.10;99.90;;;;;;5018245;28;20569;-72
2021/12/03 08:48:43;;;;;;;0.00;0.00;;;3.10;99.90;;;;;;5012320;28;20743;-72
2021/12/03 08:56:37;;;;;;;0.50;0.50;;;3.20;99.90;;;;;;5012184;28;20266;-73
2021/12/03 08:59:04;;;;;;;0.00;0.00;;;3.20;99.90;;;;;;5012198;28;20295;-73
2021/12/03 09:01:30;;;;;;;0.20;0.20;;;3.20;99.90;;;;;;5012381;28;20226;-72
2021/12/03 09:03:55;;;;;;;0.60;0.60;;;3.20;99.90;;;;;;5012443;28;20181;-73
2021/12/03 09:06:21;;;;;;;0.07;0.07;;;3.20;99.90;;;;;;5011817;28;20302;-72
2021/12/03 09:08:46;;;;;;;0.60;0.60;;;3.20;99.90;;;;;;5011699;28;20209;-73
2021/12/03 09:11:12;;;;;;;0.40;0.40;;;3.20;99.90;;;;;;5012073;28;20559;-74
2021/12/03 09:13:39;;;;;;;0.43;0.43;;;3.20;99.90;;;;;;5012274;28;20307;-74
2021/12/03 09:16:09;;;;;;;0.13;0.13;;;3.20;99.90;;;;;;5010419;28;20279;-74
2021/12/03 09:18:38;;;;;;;0.40;0.40;;;3.30;99.90;;;;;;5011969;28;20207;-74
2021/12/03 09:26:04;;;;;;;0.27;0.27;;;3.30;99.90;;;;;;5011864;28;20333;-73
2021/12/03 09:28:31;;;;;;;0.67;0.63;;;3.30;99.90;;;;;;5012046;28;20293;-73
2021/12/03 09:30:56;;;;;;;1.13;0.67;;;3.30;99.90;;;;;;5011805;28;20188;-74
2021/12/03 09:33:25;;;;;;;0.00;0.00;;;3.30;99.90;;;;;;5011850;28;20558;-73
2021/12/03 09:35:55;;;;;;;0.10;0.10;;;3.40;99.90;;;;;;5011380;28;20661;-73
2021/12/03 09:38:21;;;;;;;1.27;1.27;;;3.40;99.90;;;;;;5011638;28;20207;-73
2021/12/03 09:40:47;;;;;;;6.03;1.27;;;3.40;99.90;;;;;;5011673;28;20611;-73
2021/12/03 09:43:13;;;;;;;0.70;0.57;;;3.40;99.90;;;;;;5011914;28;20266;-73
2021/12/03 09:45:40;;;;;;;0.63;0.63;;;3.40;99.90;;;;;;5011550;28;20171;-73
2021/12/03 09:48:18;;;;;;;0.97;0.97;;;3.40;99.90;;;;;;5011125;28;20184;-73
2021/12/03 09:50:43;;;;;;;0.40;0.40;;;3.50;99.90;;;;;;5010710;28;20222;-73
2021/12/03 09:55:35;;;;;;;0.00;0.00;;;3.50;99.90;;;;;;5011666;28;20180;-73
2021/12/03 09:58:22;;;;;;;0.20;0.20;;;3.50;99.90;;;;;;5010871;28;20283;-73
2021/12/03 10:01:10;;;;;;;0.00;0.00;;;3.50;99.90;;;;;;5005921;28;20189;-73
2021/12/03 10:03:54;;;;;;;0.67;0.67;;;3.60;99.90;;;;;;5013449;28;20180;-73
2021/12/03 10:15:17;;;;;;;0.00;0.00;;;3.60;99.90;;;;;;5030577;28;20191;-72
2021/12/03 10:17:50;;;;;;;0.10;0.10;;;3.70;99.90;;;;;;5030569;28;20582;-73
2021/12/03 10:23:19;;;;;;;0.20;0.20;;;3.80;99.90;;;;;;5035079;28;20212;-73
2021/12/03 10:31:29;;;;;;;0.10;0.10;;;4.20;99.90;;;;;;5035235;28;20226;-73
2021/12/03 10:33:54;;;;;;;0.00;0.00;;;4.30;99.90;;;;;;5034485;28;20189;-73
2021/12/03 10:41:33;;;;;;;0.77;0.77;;;4.40;99.90;;;;;;5034903;28;20180;-72
2021/12/03 10:44:07;;;;;;;0.00;0.00;;;4.40;99.90;;;;;;5034627;28;20712;-72
2021/12/03 10:49:28;;;;;;;0.20;0.20;;;4.40;99.90;;;;;;5014544;28;20197;-72
2021/12/03 10:52:21;;;;;;;0.10;0.10;;;4.40;99.90;;;;;;5015229;28;20205;-72
2021/12/03 11:36:11;;;;;;;0.73;0.73;;;5.00;99.90;;;;;;5014112;28;20236;-72
2021/12/03 12:04:33;;;;;;;0.63;0.63;;;4.90;99.90;;;;;;4993596;28;20184;-69
2021/12/03 13:10:09;;;;;;;0.20;0.20;;;5.10;99.90;;;;;;4979267;28;20263;-69
2021/12/03 13:12:35;;;;;;;0.20;0.20;;;5.10;99.90;;;;;;4979332;28;20289;-69
2021/12/03 13:57:44;;;;;;;0.30;0.30;;;4.90;99.90;;;;;;4972919;28;20207;-69
2021/12/03 14:19:22;;;;;;;0.10;0.10;;;4.80;99.90;;;;;;4972528;28;20569;-69
2021/12/03 14:48:27;;;;;;;0.10;0.10;;;4.60;99.90;;;;;;4991489;28;20269;-71
2021/12/03 14:56:42;;;;;;;0.53;0.43;;;4.60;99.90;;;;;;4991522;28;20266;-69
2021/12/03 14:59:23;;;;;;;0.20;0.20;;;4.60;99.90;;;;;;4974109;28;20211;-69
2021/12/03 15:01:59;;;;;;;0.60;0.60;;;4.60;99.90;;;;;;4991497;28;20297;-69
2021/12/03 15:09:40;;;;;;;0.93;0.53;;;4.40;99.90;;;;;;4995313;28;20201;-69
2021/12/03 15:23:01;;;;;;;15.27;1.07;;;4.00;99.90;;;;;;4994748;28;20206;-69
2021/12/03 15:30:59;;;;;;;0.10;0.10;;;3.80;99.90;;;;;;4997293;28;20309;-69
2021/12/03 15:34:13;;;;;;;0.00;0.00;;;3.70;99.90;;;;;;4996293;28;20201;-69
2021/12/03 15:37:20;;;;;;;0.00;0.00;;;3.70;99.90;;;;;;4988226;28;20264;-69
2021/12/03 15:39:23;;;;;;;0.10;0.10;;;3.60;99.90;;;;;;4983556;28;20224;-69
2021/12/03 15:58:06;;;;;;;0.53;0.53;;;3.80;99.90;;;;;;4989313;28;20213;-69
2021/12/03 16:03:52;;;;;;;0.10;0.10;;;3.90;99.90;;;;;;4994382;28;20187;-69
2021/12/03 16:08:40;;;;;;;0.10;0.10;;;4.00;99.90;;;;;;4994381;28;20182;-69
2021/12/03 16:14:19;;;;;;;0.10;0.10;;;4.20;99.90;;;;;;4994449;28;20193;-69
2021/12/03 16:17:04;;;;;;;0.20;0.20;;;4.20;99.90;;;;;;4993638;28;20241;-69
2021/12/03 16:44:29;;;;;;;0.10;0.10;;;4.30;99.90;;;;;;4974126;28;20213;-69
2021/12/03 16:52:32;;;;;;;0.30;0.30;;;4.30;99.90;;;;;;4984248;28;20279;-69
2021/12/03 16:55:00;;;;;;;0.37;0.37;;;4.30;99.90;;;;;;4956380;28;20571;-69
2021/12/03 16:57:32;;;;;;;6.67;1.53;;;4.30;99.90;;;;;;4973047;28;20199;-69
2021/12/03 17:00:03;;;;;;;0.50;0.50;;;4.30;99.90;;;;;;4973429;28;20225;-69
2021/12/03 17:02:36;;;;;;;1.07;0.83;;;4.30;99.90;;;;;;4973287;28;20217;-69
2021/12/03 17:05:37;;;;;;;0.13;0.13;;;4.20;99.90;;;;;;4956234;28;20179;-69
2021/12/03 17:19:35;;;;;;;0.00;0.00;;;4.20;99.90;;;;;;4973481;28;20572;-69
2021/12/03 17:44:17;;;;;;;0.00;0.00;;;4.10;99.90;;;;;;4973016;28;20244;-69
2021/12/03 17:53:42;;;;;;;0.00;0.00;;;3.80;99.90;;;;;;4974989;28;20195;-69
2021/12/03 17:56:13;;;;;;;0.10;0.10;;;3.80;99.90;;;;;;4972193;28;20188;-69
2021/12/03 17:58:43;;;;;;;0.73;0.73;;;3.80;99.90;;;;;;4972268;28;20269;-69
2021/12/03 18:01:20;;;;;;;0.57;0.57;;;3.70;99.90;;;;;;4981261;23;20238;-69
2021/12/03 18:16:47;;;;;;;0.80;0.80;;;3.90;99.90;;;;;;4972020;28;20206;-69
2021/12/03 18:19:38;;;;;;;0.00;0.00;;;3.90;99.90;;;;;;4972113;28;20213;-69
2021/12/03 18:44:05;;;;;;;0.00;0.00;;;3.90;99.90;;;;;;4975885;28;20305;-69
2021/12/03 18:56:21;;;;;;;0.10;0.10;;;4.00;99.90;;;;;;4975627;28;20726;-69
2021/12/03 18:58:55;;;;;;;0.00;0.00;;;4.00;99.90;;;;;;4975480;28;20623;-69
2021/12/03 19:01:24;;;;;;;0.10;0.10;;;4.00;99.90;;;;;;4975690;28;20218;-69
2021/12/03 19:07:24;;;;;;;0.10;0.10;;;3.90;99.90;;;;;;4975456;28;20179;-69
2021/12/03 19:09:25;;;;;;;0.33;0.33;;;4.00;99.90;;;;;;4968012;28;20205;-69
2021/12/03 19:12:07;;;;;;;0.00;0.00;;;4.00;99.90;;;;;;4975225;28;20582;-69
2021/12/03 19:14:36;;;;;;;0.00;0.00;;;3.90;99.90;;;;;;4975383;28;20200;-69
2021/12/03 19:17:02;;;;;;;0.37;0.37;;;3.90;99.90;;;;;;4975528;28;20194;-69
2021/12/03 19:19:30;;;;;;;0.00;0.00;;;4.00;99.90;;;;;;4975723;28;20214;-69
2021/12/03 19:21:59;;;;;;;0.10;0.10;;;4.00;99.90;;;;;;4975205;28;20202;-69
2021/12/03 19:24:26;;;;;;;0.33;0.33;;;4.00;99.90;;;;;;4975985;28;20548;-69
2021/12/03 19:26:52;;;;;;;0.10;0.10;;;4.00;99.90;;;;;;4958906;28;20196;-69
2021/12/03 19:29:20;;;;;;;0.07;0.07;;;4.00;99.90;;;;;;4975647;28;20186;-69
2021/12/03 19:31:47;;;;;;;0.00;0.00;;;4.00;99.90;;;;;;4975658;28;20549;-69
2021/12/03 19:34:14;;;;;;;0.00;0.00;;;4.00;99.90;;;;;;4975124;28;20266;-69
2021/12/03 19:36:41;;;;;;;0.03;0.03;;;4.10;99.90;;;;;;4975276;28;20656;-69
2021/12/03 19:39:08;;;;;;;0.00;0.00;;;4.10;99.90;;;;;;4974836;28;20202;-69
2021/12/03 19:44:13;;;;;;;0.30;0.30;;;4.10;99.90;;;;;;4975008;28;20274;-69
2021/12/03 19:46:44;;;;;;;0.00;0.00;;;4.20;99.90;;;;;;4990862;28;20702;-69
2021/12/03 19:51:54;;;;;;;0.20;0.20;;;4.30;99.90;;;;;;4990510;28;20695;-69
2021/12/03 19:54:21;;;;;;;1.80;0.73;;;4.30;99.90;;;;;;4974857;28;20711;-69
2021/12/03 19:56:48;;;;;;;0.00;0.00;;;4.30;99.90;;;;;;4974555;28;20616;-69
2021/12/03 19:59:14;;;;;;;0.00;0.00;;;4.30;99.90;;;;;;4974491;28;20673;-69
2021/12/03 20:01:41;;;;;;;0.00;0.00;;;4.40;99.90;;;;;;4974386;28;20700;-69
2021/12/03 20:04:07;;;;;;;0.10;0.10;;;4.40;99.90;;;;;;4974697;28;20183;-69
2021/12/03 20:06:35;;;;;;;0.53;0.53;;;4.40;99.90;;;;;;4974165;28;20199;-69
2021/12/03 20:09:03;;;;;;;0.00;0.00;;;4.40;99.90;;;;;;4974177;28;20265;-69
2021/12/03 20:11:45;;;;;;;0.10;0.10;;;4.40;99.90;;;;;;4974571;28;20222;-69
2021/12/03 20:14:13;;;;;;;0.10;0.10;;;4.40;99.90;;;;;;4974015;28;20221;-69